Time;durP1;ratioP1;P1;durP2;ratioP2;P2;SDS_P1;SDS_P2;PMS_P1;PMS_P2;Temp;Humidity;BMP_temperature;BMP_pressure;BME280_temperature;BME280_humidity;BME280_pressure;Samples;Min_cycle;Max_cycle;Signal;HPM_P1;HPM_P2
2021/06/02 00:00:13;;;;;;;11.25;3.90;;;11.40;99.90;;;10.05;98.42;101714.50;4955316;28;20486;-77
2021/06/02 00:02:59;;;;;;;8.88;3.67;;;11.30;99.90;;;10.07;98.12;101716.19;4969045;28;20065;-77
2021/06/02 00:05:30;;;;;;;8.97;3.60;;;11.30;99.90;;;9.97;98.63;101714.72;4996671;28;20495;-77
2021/06/02 00:07:59;;;;;;;11.38;3.63;;;11.30;99.90;;;9.94;98.82;101714.81;5007812;28;20391;-77
2021/06/02 00:10:26;;;;;;;7.97;3.83;;;11.20;99.90;;;10.00;98.43;101714.66;4955036;28;20084;-77
2021/06/02 00:12:53;;;;;;;5.22;3.30;;;11.30;99.90;;;9.89;98.50;101714.06;4979645;28;20076;-77
2021/06/02 00:15:22;;;;;;;9.93;3.30;;;11.20;99.90;;;9.91;98.91;101720.16;4970500;28;20060;-76
2021/06/02 00:17:52;;;;;;;8.38;3.80;;;11.20;99.90;;;10.01;98.03;101718.97;4998589;28;20057;-76
2021/06/02 00:20:18;;;;;;;6.00;3.50;;;11.30;99.90;;;9.94;98.66;101717.44;4963515;28;20058;-77
2021/06/02 00:22:53;;;;;;;9.10;3.47;;;11.20;99.90;;;9.90;98.56;101728.09;4975575;28;20068;-76
2021/06/02 00:25:18;;;;;;;8.02;3.33;;;11.20;99.90;;;9.91;98.41;101721.91;5001654;28;20089;-76
2021/06/02 00:27:45;;;;;;;9.85;3.47;;;11.20;99.90;;;10.00;97.95;101721.66;4989804;28;20508;-76
2021/06/02 00:30:11;;;;;;;5.80;3.35;;;11.30;99.90;;;9.99;98.11;101723.44;4985463;28;20076;-76
2021/06/02 00:32:40;;;;;;;10.68;3.50;;;11.30;99.90;;;9.93;98.13;101718.34;4989789;28;20067;-76
2021/06/02 00:35:08;;;;;;;7.60;3.53;;;11.20;99.90;;;9.92;98.01;101724.50;4984632;28;20071;-76
2021/06/02 00:37:35;;;;;;;9.50;3.33;;;11.20;99.90;;;9.98;98.01;101726.97;4966394;28;20066;-76
2021/06/02 00:40:01;;;;;;;6.38;3.35;;;11.20;99.90;;;9.86;98.64;101716.78;4966524;28;20061;-76
2021/06/02 00:42:35;;;;;;;12.63;3.55;;;11.20;99.90;;;9.80;99.04;101725.69;4987690;28;20155;-76
2021/06/02 00:45:00;;;;;;;8.68;3.80;;;11.20;99.90;;;9.83;99.17;101717.75;4997843;28;20084;-76
2021/06/02 00:47:27;;;;;;;8.48;3.80;;;11.10;99.90;;;9.82;98.92;101725.66;4956311;28;20121;-76
2021/06/02 00:49:53;;;;;;;7.63;3.50;;;11.10;99.90;;;9.73;99.57;101729.41;4966595;28;20137;-76
2021/06/02 00:52:19;;;;;;;10.73;3.60;;;11.10;99.90;;;9.74;99.42;101718.00;4965597;28;20116;-76
2021/06/02 00:54:52;;;;;;;7.28;3.05;;;11.10;99.90;;;9.79;99.39;101725.75;4995715;28;20073;-76
2021/06/02 00:57:20;;;;;;;6.07;3.42;;;11.10;99.90;;;9.72;100.00;101725.06;4939176;28;20063;-76
2021/06/02 01:00:03;;;;;;;14.57;4.13;;;11.10;99.90;;;9.74;100.00;101722.38;4973389;28;20089;-76
2021/06/02 01:02:33;;;;;;;10.98;3.97;;;11.00;99.90;;;9.75;100.00;101724.13;4996943;28;20061;-76
2021/06/02 01:05:00;;;;;;;12.02;4.25;;;11.00;99.90;;;9.67;100.00;101723.47;4996543;28;20082;-76
2021/06/02 01:07:26;;;;;;;6.05;4.07;;;11.00;99.90;;;9.75;100.00;101719.72;4982792;28;20486;-76
2021/06/02 01:09:56;;;;;;;9.40;4.20;;;10.90;99.90;;;9.58;100.00;101714.06;5004255;28;20555;-76
2021/06/02 01:12:25;;;;;;;11.80;5.05;;;11.00;99.90;;;9.63;100.00;101713.03;4978976;28;20415;-76
2021/06/02 01:14:53;;;;;;;13.88;4.85;;;10.90;99.90;;;9.54;100.00;101720.28;4971170;28;20075;-76
2021/06/02 01:17:33;;;;;;;12.98;5.20;;;10.90;99.90;;;9.61;100.00;101712.22;4985392;28;20074;-77
2021/06/02 01:20:01;;;;;;;12.88;5.00;;;10.90;99.90;;;9.62;100.00;101715.69;4975160;28;20147;-76
2021/06/02 01:22:36;;;;;;;15.23;5.18;;;10.90;99.90;;;9.56;100.00;101727.22;4943420;28;20132;-76
2021/06/02 01:25:20;;;;;;;10.30;4.72;;;10.90;99.90;;;9.63;100.00;101720.03;4961003;28;20083;-77
2021/06/02 01:27:47;;;;;;;11.75;5.70;;;10.90;99.90;;;9.54;100.00;101718.50;4998131;28;20439;-77
2021/06/02 01:30:20;;;;;;;12.13;4.97;;;10.90;99.90;;;9.52;100.00;101720.31;4966665;28;20157;-77
2021/06/02 01:33:03;;;;;;;12.40;5.63;;;10.80;99.90;;;9.57;100.00;101715.81;4947544;28;20066;-77
2021/06/02 01:35:58;;;;;;;15.00;5.57;;;10.80;99.90;;;9.50;99.57;101708.97;4995900;28;20065;-77
2021/06/02 01:39:19;;;;;;;12.13;5.50;;;10.80;99.90;;;9.49;100.00;101709.03;4957855;28;20078;-77
2021/06/02 01:42:17;;;;;;;9.10;5.22;;;10.80;99.90;;;9.48;100.00;101716.06;4943137;28;20122;-77
2021/06/02 01:45:28;;;;;;;8.48;5.07;;;10.80;99.90;;;9.48;99.90;101723.06;4956735;28;20124;-77
2021/06/02 01:48:34;;;;;;;8.85;4.85;;;10.80;99.90;;;9.45;99.61;101726.66;4956719;28;20105;-77
2021/06/02 01:51:37;;;;;;;12.77;4.53;;;10.80;99.90;;;9.39;100.00;101729.44;4998816;28;20098;-77
2021/06/02 01:54:14;;;;;;;10.63;4.78;;;10.80;99.90;;;9.49;99.68;101738.81;4989626;28;20443;-77
2021/06/02 01:57:14;;;;;;;10.85;5.20;;;10.90;99.90;;;9.55;100.00;101735.19;4939586;28;20540;-77
2021/06/02 02:00:36;;;;;;;13.32;5.05;;;10.80;99.90;;;9.48;100.00;101729.22;4996263;28;20452;-77
2021/06/02 02:03:25;;;;;;;10.98;5.55;;;10.80;99.90;;;9.49;100.00;101736.19;4978698;28;20611;-77
2021/06/02 02:06:16;;;;;;;9.73;5.00;;;10.80;99.90;;;9.50;99.81;101730.00;4939215;28;20087;-77
2021/06/02 02:09:26;;;;;;;8.85;4.90;;;10.80;99.90;;;9.41;99.77;101730.25;4957510;28;20422;-77
2021/06/02 02:12:16;;;;;;;8.40;5.15;;;10.70;99.90;;;9.44;100.00;101730.19;4981853;28;20072;-77
2021/06/02 02:15:08;;;;;;;12.43;5.70;;;10.70;99.90;;;9.33;99.42;101727.84;4997523;28;20090;-78
2021/06/02 02:18:59;;;;;;;11.60;5.63;;;10.70;99.90;;;9.32;99.74;101731.34;4985532;28;20078;-77
2021/06/02 02:21:54;;;;;;;10.02;4.90;;;10.60;99.90;;;9.36;99.39;101727.75;4895598;28;20075;-77
2021/06/02 02:24:59;;;;;;;12.90;5.32;;;10.70;99.90;;;9.25;99.76;101729.78;4936931;28;20070;-77
2021/06/02 02:28:23;;;;;;;9.60;5.40;;;10.50;99.90;;;9.24;99.63;101730.69;4955074;28;20074;-78
2021/06/02 02:31:23;;;;;;;13.40;5.85;;;10.60;99.90;;;9.17;99.72;101732.59;4985457;28;20065;-77
2021/06/02 02:34:24;;;;;;;12.75;5.05;;;10.50;99.90;;;9.11;100.00;101724.88;4982149;28;20749;-77
2021/06/02 02:37:05;;;;;;;12.82;4.80;;;10.50;99.90;;;9.11;100.00;101726.63;4989853;28;20149;-77
2021/06/02 02:40:08;;;;;;;10.57;5.75;;;10.50;99.90;;;9.04;100.00;101720.66;4955390;28;20062;-77
2021/06/02 02:43:06;;;;;;;10.10;5.63;;;10.40;99.90;;;8.98;100.00;101720.81;4963482;28;20125;-77
2021/06/02 02:46:12;;;;;;;9.25;5.35;;;10.30;99.90;;;8.97;100.00;101730.47;4972228;28;20082;-78
2021/06/02 02:48:59;;;;;;;12.40;5.47;;;10.30;99.90;;;8.96;100.00;101733.13;4948401;28;20063;-78
2021/06/02 02:51:27;;;;;;;10.93;5.68;;;10.30;99.90;;;8.97;100.00;101732.25;4928840;28;20070;-77
2021/06/02 02:54:32;;;;;;;10.63;5.55;;;10.30;99.90;;;8.91;100.00;101729.75;4979800;28;20098;-77
2021/06/02 02:57:27;;;;;;;13.50;5.47;;;10.20;99.90;;;8.87;100.00;101728.09;4989437;28;20188;-77
2021/06/02 03:00:35;;;;;;;17.08;5.60;;;10.30;99.90;;;8.86;100.00;101731.63;4971613;28;20070;-77
2021/06/02 03:03:27;;;;;;;11.88;5.70;;;10.20;99.90;;;8.88;100.00;101740.34;4978324;28;20153;-77
2021/06/02 03:06:38;;;;;;;9.25;5.60;;;10.30;99.90;;;8.94;100.00;101737.53;4981922;28;20078;-78
2021/06/02 03:09:21;;;;;;;10.98;5.60;;;10.30;99.90;;;8.90;100.00;101734.16;4980791;28;20124;-77
2021/06/02 03:12:18;;;;;;;12.88;6.28;;;10.30;99.90;;;8.92;100.00;101744.59;4942615;28;20066;-77
2021/06/02 03:15:32;;;;;;;13.05;5.85;;;10.30;99.90;;;8.94;100.00;101745.44;4960346;28;20623;-77
2021/06/02 03:18:40;;;;;;;10.85;5.85;;;10.30;99.90;;;9.01;99.73;101749.66;4936360;28;20103;-77
2021/06/02 03:21:55;;;;;;;12.00;5.80;;;10.40;99.90;;;9.04;99.45;101749.56;4957105;28;20070;-77
2021/06/02 03:24:54;;;;;;;14.13;6.18;;;10.40;99.90;;;9.02;99.86;101760.09;4945249;28;20086;-77
2021/06/02 03:28:00;;;;;;;17.20;6.43;;;10.40;99.90;;;9.01;99.82;101755.75;4944890;28;20097;-77
2021/06/02 03:30:37;;;;;;;11.98;6.25;;;10.40;99.90;;;9.02;98.96;101756.63;4991177;28;20410;-77
2021/06/02 03:33:37;;;;;;;13.20;6.35;;;10.40;99.90;;;9.00;99.96;101763.69;4966198;28;20074;-78
2021/06/02 03:36:21;;;;;;;8.40;5.15;;;10.40;99.90;;;9.00;99.45;101759.28;4957925;28;20513;-77
2021/06/02 03:39:28;;;;;;;9.05;5.35;;;10.40;99.90;;;9.07;99.74;101767.00;4963367;28;20067;-77
2021/06/02 03:42:18;;;;;;;11.63;5.93;;;10.50;99.90;;;9.14;99.56;101761.59;4970867;28;20064;-77
2021/06/02 03:45:30;;;;;;;9.18;5.13;;;10.60;99.90;;;9.22;99.39;101770.16;4961260;28;20105;-77
2021/06/02 03:48:07;;;;;;;11.18;5.88;;;10.70;99.90;;;9.33;98.56;101763.75;4974882;28;20569;-77
2021/06/02 03:50:54;;;;;;;11.43;6.03;;;10.80;99.90;;;9.34;98.23;101766.34;4936897;28;20180;-77
2021/06/02 03:53:37;;;;;;;9.07;5.00;;;10.80;99.90;;;9.37;98.44;101762.78;4972246;28;20081;-77
2021/06/02 03:56:43;;;;;;;8.90;5.50;;;10.90;99.90;;;9.47;98.69;101766.06;4924289;28;20093;-77
2021/06/02 03:59:26;;;;;;;7.88;5.35;;;11.20;99.90;;;9.82;97.41;101775.66;4992523;28;20104;-77
2021/06/02 04:01:57;;;;;;;9.15;5.40;;;11.40;99.90;;;10.02;97.63;101770.72;4980530;28;20149;-78
2021/06/02 04:04:40;;;;;;;10.85;5.63;;;12.30;99.90;;;11.31;93.88;101767.75;4920131;28;20123;-77
2021/06/02 04:07:12;;;;;;;9.95;4.82;;;14.20;99.90;;;13.00;87.26;101757.19;4935364;28;20063;-78
2021/06/02 04:10:03;;;;;;;9.13;4.32;;;15.80;99.90;;;14.66;77.28;101765.03;4947623;28;20058;-78
2021/06/02 04:12:54;;;;;;;6.45;3.22;;;16.90;99.90;;;15.56;70.83;101759.72;4979680;28;20187;-78
2021/06/02 04:15:25;;;;;;;7.30;3.35;;;17.60;99.90;;;15.67;70.66;101764.47;4948780;28;20468;-78
2021/06/02 04:17:52;;;;;;;4.55;3.28;;;17.50;99.90;;;15.17;70.75;101769.59;4995049;28;20030;-78
2021/06/02 04:20:19;;;;;;;5.65;3.05;;;16.60;99.90;;;14.74;71.95;101773.47;4985410;28;20060;-78
2021/06/02 04:22:47;;;;;;;7.57;4.03;;;15.90;99.90;;;13.85;75.96;101777.50;4992296;28;20059;-78
2021/06/02 04:25:17;;;;;;;7.15;3.75;;;15.00;99.90;;;13.05;78.25;101775.50;4971182;28;20730;-78
2021/06/02 04:27:47;;;;;;;9.65;3.70;;;14.20;99.90;;;12.35;82.12;101777.31;4976287;28;20061;-78
2021/06/02 04:30:17;;;;;;;12.27;3.65;;;13.70;99.90;;;12.08;83.49;101772.13;4952178;28;20539;-78
2021/06/02 04:32:46;;;;;;;8.00;4.47;;;13.40;99.90;;;11.80;85.67;101781.91;4930738;28;20066;-78
2021/06/02 04:35:18;;;;;;;7.50;3.85;;;13.00;99.90;;;11.26;87.34;101779.31;4986044;28;20078;-78
2021/06/02 04:37:51;;;;;;;11.48;5.00;;;12.80;99.90;;;11.28;88.55;101785.41;4969162;28;20112;-78
2021/06/02 04:40:17;;;;;;;8.25;4.35;;;12.70;99.90;;;11.20;89.59;101776.88;4960832;28;20488;-78
2021/06/02 04:42:43;;;;;;;10.63;4.50;;;13.00;99.90;;;11.76;87.29;101780.31;4969363;28;20067;-78
2021/06/02 04:45:26;;;;;;;6.95;4.13;;;13.80;99.90;;;12.79;83.41;101773.91;4981029;28;20109;-77
2021/06/02 04:47:59;;;;;;;8.90;4.10;;;15.10;99.90;;;14.09;79.21;101773.75;4990826;28;20069;-78
2021/06/02 04:50:38;;;;;;;8.52;3.72;;;16.50;99.90;;;14.67;72.50;101772.06;4965236;28;20116;-78
2021/06/02 04:53:33;;;;;;;5.97;3.55;;;16.10;99.90;;;14.11;75.37;101776.34;4993834;28;20091;-78
2021/06/02 04:56:45;;;;;;;6.82;3.75;;;16.20;99.90;;;13.87;75.37;101779.16;4958699;28;20073;-77
2021/06/02 05:00:03;;;;;;;5.70;3.83;;;16.40;99.90;;;15.34;72.58;101787.34;4980239;28;20419;-78
2021/06/02 05:03:15;;;;;;;4.85;3.00;;;18.00;99.90;;;16.38;66.01;101775.78;4984886;28;20044;-78
2021/06/02 05:05:55;;;;;;;4.55;2.80;;;18.50;99.90;;;16.94;63.01;101773.59;4974659;28;20044;-78
2021/06/02 05:09:08;;;;;;;5.53;2.60;;;19.40;99.90;;;18.19;59.09;101779.59;4989747;28;20021;-78
2021/06/02 05:12:52;;;;;;;7.85;2.75;;;20.40;99.90;;;17.74;56.92;101790.25;4944083;28;20031;-78
2021/06/02 05:16:28;;;;;;;4.70;2.28;;;19.00;99.90;;;16.49;62.71;101779.66;4919352;28;20445;-78
2021/06/02 05:22:50;;;;;;;6.60;2.30;;;18.80;99.90;;;16.87;61.25;101785.53;5007178;28;20029;-78
2021/06/02 05:26:05;;;;;;;3.83;2.28;;;19.50;99.90;;;17.49;59.92;101780.19;4987461;28;20049;-78
2021/06/02 05:29:17;;;;;;;5.28;2.70;;;19.10;99.90;;;16.33;62.43;101782.31;4973261;28;20036;-78
2021/06/02 05:32:28;;;;;;;4.82;2.58;;;19.00;99.90;;;17.45;59.49;101788.44;4960543;28;20509;-79
2021/06/02 05:35:19;;;;;;;6.07;2.67;;;19.30;99.90;;;16.89;62.10;101790.75;4984547;28;20043;-78
2021/06/02 05:38:30;;;;;;;4.95;2.40;;;18.20;99.90;;;16.31;62.60;101798.31;5000658;28;20028;-78
2021/06/02 05:41:07;;;;;;;6.63;2.45;;;18.20;99.90;;;16.69;61.77;101811.31;4974659;28;20040;-78
2021/06/02 05:43:50;;;;;;;;;;;18.80;99.90;;;16.48;60.92;101813.38;4993921;28;20112;-77
2021/06/02 05:47:03;;;;;;;6.80;2.50;;;18.40;99.90;;;17.05;59.17;101796.09;4996155;28;19972;-78
2021/06/02 05:50:25;;;;;;;3.60;2.50;;;18.90;99.90;;;17.90;57.00;101806.19;4992741;28;20056;-78
2021/06/02 05:53:47;;;;;;;5.40;2.55;;;18.60;99.90;;;16.95;60.11;101801.06;4982619;28;20031;-78
2021/06/02 05:56:51;;;;;;;5.28;2.33;;;19.00;99.90;;;17.64;58.87;101810.38;5005525;28;20048;-78
2021/06/02 05:59:47;;;;;;;4.22;2.72;;;18.40;99.90;;;16.68;60.83;101808.75;4980594;28;20048;-78
2021/06/02 06:02:32;;;;;;;4.57;2.75;;;;;;;16.98;60.83;101815.06;4984502;28;20037;-78
2021/06/02 06:05:19;;;;;;;5.35;2.15;;;18.70;99.90;;;17.15;58.97;101813.25;4961259;28;20574;-78
2021/06/02 06:08:41;;;;;;;3.75;2.17;;;18.20;99.90;;;16.89;60.93;101806.72;4938894;28;20029;-78
2021/06/02 06:11:10;;;;;;;4.88;2.10;;;19.20;99.90;;;18.15;56.58;101797.56;4964065;28;20069;-78
2021/06/02 06:14:02;;;;;;;4.47;2.15;;;19.90;99.90;;;17.82;56.09;101801.34;4985065;28;20045;-78
2021/06/02 06:16:58;;;;;;;6.63;1.98;;;19.50;99.90;;;17.41;57.68;101804.59;4950868;28;20481;-78
2021/06/02 06:20:28;;;;;;;4.95;2.08;;;20.20;99.90;;;18.44;53.01;101803.78;4968677;28;20033;-78
2021/06/02 06:23:13;;;;;;;7.80;2.10;;;19.80;99.90;;;17.44;56.38;101811.56;4946161;28;20076;-78
2021/06/02 06:25:51;;;;;;;6.38;2.10;;;18.60;99.90;;;16.77;58.88;101818.88;4976738;28;21087;-78
2021/06/02 06:28:47;;;;;;;6.03;2.00;;;18.80;99.90;;;17.75;60.21;101813.28;4974484;28;20065;-78
2021/06/02 06:31:26;;;;;;;5.13;1.95;;;20.00;99.90;;;18.64;53.54;101806.97;4995179;28;20039;-78
2021/06/02 06:33:55;;;;;;;4.07;1.80;;;20.50;99.90;;;18.36;54.98;101810.53;4929943;28;20471;-79
2021/06/02 06:36:25;;;;;;;2.75;1.88;;;20.50;99.90;;;19.63;52.43;101812.09;4960117;28;20154;-79
2021/06/02 06:39:48;;;;;;;3.00;1.90;;;20.40;99.90;;;18.36;53.23;101818.53;4975300;28;20029;-78
2021/06/02 06:42:21;;;;;;;5.63;2.13;;;20.20;99.90;;;18.63;53.73;101821.25;4970474;28;20025;-78
2021/06/02 06:44:57;;;;;;;5.18;2.00;;;20.50;99.90;;;18.98;54.15;101813.69;4997964;28;20041;-79
2021/06/02 06:47:26;;;;;;;;;;;21.40;99.90;;;20.41;50.69;101812.06;4953840;28;20120;-79
2021/06/02 06:49:57;;;;;;;5.50;2.28;;;22.40;98.90;;;21.05;50.21;101817.25;4957212;28;19905;-79
2021/06/02 06:52:28;;;;;;;4.82;1.98;;;22.30;98.70;;;20.62;50.98;101817.72;5004987;28;20489;-78
2021/06/02 06:54:58;;;;;;;4.85;2.33;;;21.30;98.20;;;18.26;53.23;101828.03;4974086;28;20029;-79
2021/06/02 06:57:26;;;;;;;5.85;2.10;;;18.90;99.90;;;17.09;59.13;101821.56;4936767;28;20033;-78
2021/06/02 06:59:57;;;;;;;7.57;2.65;;;18.50;99.90;;;17.00;62.46;101810.50;4977776;28;20046;-79
2021/06/02 07:02:23;;;;;;;3.97;2.40;;;17.30;99.90;;;15.72;65.20;101826.19;4964812;28;20059;-78
2021/06/02 07:04:50;;;;;;;6.80;2.83;;;17.10;99.90;;;15.56;65.16;101824.28;4979921;28;20156;-78
2021/06/02 07:07:18;;;;;;;7.22;2.85;;;17.30;99.90;;;16.81;62.96;101810.66;4972301;28;20147;-78
2021/06/02 07:09:49;;;;;;;5.38;2.53;;;18.80;99.90;;;18.82;56.67;101804.97;4956521;28;20047;-77
2021/06/02 07:12:19;;;;;;;4.50;2.05;;;20.10;99.90;;;18.96;53.69;101817.41;4970269;28;20029;-79
2021/06/02 07:14:46;;;;;;;6.75;2.22;;;18.90;99.90;;;17.41;58.29;101828.56;4950190;28;20053;-78
2021/06/02 07:17:21;;;;;;;6.60;3.05;;;18.10;99.90;;;16.46;62.15;101827.66;4976952;28;20119;-78
2021/06/02 07:19:54;;;;;;;7.60;3.08;;;18.20;99.90;;;17.00;63.27;101828.28;4950506;28;20081;-78
2021/06/02 07:22:23;;;;;;;9.18;3.05;;;18.60;99.90;;;17.28;62.05;101819.59;4944047;28;20024;-78
2021/06/02 07:24:54;;;;;;;10.05;3.05;;;19.00;99.90;;;18.17;59.13;101819.66;4944717;28;20545;-78
2021/06/02 07:27:25;;;;;;;14.60;4.43;;;19.80;99.90;;;18.80;58.40;101814.88;4952337;28;20053;-78
2021/06/02 07:29:52;;;;;;;6.75;2.70;;;20.40;99.90;;;19.56;53.06;101817.00;4974541;28;20028;-78
2021/06/02 07:32:19;;;;;;;5.68;2.45;;;20.90;99.90;;;20.58;50.28;101810.91;4935065;28;20659;-78
2021/06/02 07:34:46;;;;;;;5.13;1.95;;;20.70;99.90;;;19.10;50.51;101819.22;4989682;28;20033;-78
2021/06/02 07:37:14;;;;;;;6.05;2.40;;;20.70;99.90;;;19.77;50.73;101821.91;4979779;28;20624;-78
2021/06/02 07:39:40;;;;;;;5.10;2.70;;;21.10;99.90;;;19.83;51.17;101826.81;4979325;28;20108;-79
2021/06/02 07:42:07;;;;;;;4.85;2.45;;;21.00;99.90;;;20.14;51.33;101830.06;4988435;28;20473;-78
2021/06/02 07:44:33;;;;;;;5.57;2.85;;;20.80;99.90;;;19.87;51.61;101822.97;4969013;28;20120;-78
2021/06/02 07:46:59;;;;;;;9.20;2.80;;;20.70;99.90;;;19.34;53.07;101822.06;4995134;28;20532;-78
2021/06/02 07:49:24;;;;;;;11.23;2.85;;;20.60;99.90;;;19.92;53.92;101823.50;4986033;28;20453;-78
2021/06/02 07:52:01;;;;;;;8.35;3.03;;;20.40;99.90;;;18.93;55.02;101823.81;4987923;28;20029;-78
2021/06/02 07:54:28;;;;;;;;;;;20.20;99.90;;;18.17;56.95;101827.66;4972818;28;20022;-78
2021/06/02 07:56:55;;;;;;;10.25;2.72;;;19.40;99.90;;;18.74;58.94;101834.78;4982659;28;20259;-78
2021/06/02 07:59:21;;;;;;;6.53;2.03;;;20.20;99.90;;;19.62;52.39;101840.63;4977385;28;20068;-78
2021/06/02 08:01:49;;;;;;;4.85;2.50;;;20.10;99.90;;;19.51;55.12;101828.97;4993536;28;20112;-78
2021/06/02 08:04:15;;;;;;;6.72;2.58;;;20.40;99.90;;;18.95;53.81;101837.91;4997004;28;20543;-78
2021/06/02 08:06:41;;;;;;;7.97;2.28;;;19.60;99.90;;;18.15;58.13;101836.69;4985037;28;20517;-78
2021/06/02 08:09:09;;;;;;;5.07;2.53;;;19.90;99.90;;;18.42;55.04;101831.47;4981913;28;20056;-78
2021/06/02 08:11:41;;;;;;;5.25;2.40;;;20.10;99.90;;;18.47;56.29;101836.53;4954338;28;20116;-78
2021/06/02 08:14:07;;;;;;;4.82;2.65;;;19.90;99.90;;;18.68;55.86;101834.31;4999265;28;20033;-78
2021/06/02 08:16:32;;;;;;;5.32;2.20;;;21.90;99.90;;;19.35;56.26;101838.00;4973112;28;20056;-78
2021/06/02 08:18:58;;;;;;;6.15;2.13;;;20.40;99.90;;;18.90;54.48;101842.69;5001409;28;20388;-77
2021/06/02 08:21:24;;;;;;;6.57;2.22;;;20.50;99.90;;;18.73;53.88;101848.22;4988748;28;20032;-77
2021/06/02 08:23:50;;;;;;;6.82;2.22;;;20.00;99.90;;;18.45;54.57;101855.28;4964128;28;20030;-77
2021/06/02 08:26:23;;;;;;;5.32;2.28;;;19.40;99.90;;;17.47;58.75;101848.63;4963926;28;20037;-77
2021/06/02 08:28:49;;;;;;;4.80;2.00;;;19.10;99.90;;;17.63;60.50;101849.47;4988110;28;20183;-79
2021/06/02 08:31:16;;;;;;;15.85;3.58;;;19.10;99.90;;;18.09;58.02;101847.72;4966413;28;20416;-79
2021/06/02 08:33:43;;;;;;;3.50;1.90;;;19.40;99.90;;;17.67;58.67;101842.19;4992501;28;20067;-76
2021/06/02 08:36:14;;;;;;;3.92;2.00;;;19.40;99.90;;;17.73;60.45;101843.59;4989666;28;20150;-77
2021/06/02 08:38:39;;;;;;;5.93;2.10;;;19.40;99.90;;;17.91;58.98;101844.38;4957885;28;20033;-77
2021/06/02 08:41:07;;;;;;;3.90;2.20;;;19.50;99.90;;;18.43;57.50;101852.69;4977957;28;20440;-76
2021/06/02 08:43:34;;;;;;;3.40;2.00;;;19.60;99.90;;;17.59;57.67;101852.41;4971120;28;20066;-77
2021/06/02 08:46:03;;;;;;;4.15;2.05;;;19.00;99.90;;;17.66;58.75;101843.09;4958815;28;20074;-77
2021/06/02 08:48:29;;;;;;;4.45;2.08;;;19.10;99.90;;;17.56;58.29;101853.47;4953323;28;20036;-77
2021/06/02 08:50:55;;;;;;;4.53;1.95;;;18.40;99.90;;;16.53;60.97;101853.84;4993462;28;20602;-77
2021/06/02 08:53:22;;;;;;;4.95;2.30;;;18.50;99.90;;;17.24;60.63;101851.78;4988461;28;20055;-77
2021/06/02 08:55:49;;;;;;;3.05;1.90;;;18.90;99.90;;;17.50;57.72;101858.28;4990649;28;20067;-78
2021/06/02 08:58:21;;;;;;;5.53;2.40;;;18.90;99.90;;;17.74;60.23;101851.50;4995470;28;20063;-77
2021/06/02 09:01:05;;;;;;;6.47;2.42;;;19.30;99.90;;;17.97;57.31;101851.97;4969853;28;20064;-77
2021/06/02 09:03:41;;;;;;;4.40;2.00;;;18.60;99.90;;;17.13;61.96;101844.41;4960026;28;20033;-76
2021/06/02 09:06:28;;;;;;;5.80;1.98;;;18.90;99.90;;;18.01;56.45;101850.84;4941470;28;20078;-78
2021/06/02 09:09:17;;;;;;;10.32;2.15;;;18.80;99.90;;;17.07;58.35;101850.06;4905645;28;20833;-77
2021/06/02 09:11:50;;;;;;;3.53;1.90;;;18.40;99.90;;;17.01;61.15;101853.94;4954940;28;20064;-77
2021/06/02 09:14:43;;;;;;;8.65;2.15;;;18.40;99.90;;;17.04;59.54;101840.47;4924009;28;20078;-77
2021/06/02 09:17:28;;;;;;;4.30;2.28;;;18.20;99.90;;;17.08;61.49;101846.47;4905085;28;20456;-77
2021/06/02 09:20:20;;;;;;;5.25;2.30;;;18.30;99.90;;;17.09;61.65;101835.75;4919528;28;20403;-76
2021/06/02 09:22:46;;;;;;;4.60;2.13;;;18.60;99.90;;;17.93;63.15;101842.47;4938351;28;20067;-76
2021/06/02 09:25:27;;;;;;;2.88;2.05;;;18.60;99.90;;;16.88;64.86;101847.56;5035170;28;20072;-76
2021/06/02 09:28:09;;;;;;;5.65;2.83;;;18.40;99.90;;;17.78;61.65;101845.06;4914778;28;20029;-77
2021/06/02 09:30:50;;;;;;;10.25;2.80;;;18.30;99.90;;;17.32;62.02;101847.75;4924682;28;20051;-77
2021/06/02 09:33:18;;;;;;;6.03;2.53;;;18.80;99.90;;;18.07;61.96;101839.81;4930733;28;20063;-77
2021/06/02 09:35:45;;;;;;;5.75;2.30;;;19.00;99.90;;;18.01;62.42;101850.84;4912856;28;20114;-77
2021/06/02 09:39:02;;;;;;;5.20;1.75;;;19.30;99.90;;;18.86;58.28;101849.19;4911360;28;20074;-76
2021/06/02 09:41:51;;;;;;;4.03;1.45;;;19.60;99.90;;;18.59;56.32;101841.94;4963988;28;20527;-76
2021/06/02 09:45:15;;;;;;;4.15;1.60;;;19.70;99.90;;;18.24;56.44;101858.31;4952791;28;20086;-76
2021/06/02 09:48:51;;;;;;;3.95;1.40;;;19.10;99.90;;;18.21;57.29;101857.66;4949199;28;20074;-76
2021/06/02 09:52:08;;;;;;;3.63;1.50;;;19.80;99.90;;;19.23;54.11;101852.16;4948874;28;20053;-76
2021/06/02 09:55:33;;;;;;;3.05;1.90;;;20.00;99.90;;;18.98;54.72;101858.22;4937623;28;20128;-76
2021/06/02 09:59:03;;;;;;;3.90;1.48;;;19.50;99.90;;;18.27;55.39;101861.72;4965145;28;20038;-76
2021/06/02 10:02:33;;;;;;;2.72;1.60;;;19.30;99.90;;;18.49;57.80;101855.94;4962214;28;20035;-76
2021/06/02 10:05:52;;;;;;;3.03;1.65;;;19.30;99.90;;;18.67;57.66;101859.28;4982849;28;20055;-76
2021/06/02 10:09:35;;;;;;;5.60;1.80;;;19.80;99.90;;;18.75;55.85;101855.16;4971287;28;20070;-77
2021/06/02 10:12:26;;;;;;;5.95;1.90;;;19.50;99.90;;;18.52;56.15;101869.94;4976492;28;20037;-76
2021/06/02 10:15:58;;;;;;;4.53;1.73;;;19.10;99.90;;;18.07;57.88;101874.47;4943543;28;20041;-77
2021/06/02 10:19:52;;;;;;;3.13;2.00;;;19.40;99.90;;;18.95;52.95;101872.63;4947554;28;20095;-76
2021/06/02 10:23:32;;;;;;;3.13;1.67;;;19.80;99.90;;;18.77;54.01;101876.44;4968707;28;20428;-76
2021/06/02 10:27:10;;;;;;;3.78;1.80;;;19.30;99.90;;;18.30;55.15;101875.75;4970206;28;20079;-76
2021/06/02 10:30:44;;;;;;;3.22;1.55;;;19.50;99.90;;;18.54;55.52;101875.19;4973090;28;20060;-76
2021/06/02 10:34:36;;;;;;;4.43;2.28;;;19.50;99.90;;;18.63;56.18;101870.13;4973940;28;20122;-76
2021/06/02 10:38:17;;;;;;;5.55;1.65;;;20.00;99.90;;;19.31;54.11;101870.31;4968227;28;20071;-77
2021/06/02 10:41:15;;;;;;;4.50;1.73;;;19.90;99.90;;;18.81;55.81;101869.94;4971700;28;20069;-77
2021/06/02 10:44:22;;;;;;;8.60;2.78;;;20.10;99.90;;;19.14;53.59;101874.13;4956452;28;20592;-76
2021/06/02 10:47:20;;;;;;;4.50;1.80;;;19.70;99.90;;;18.82;53.77;101871.69;4965665;28;20509;-76
2021/06/02 10:50:42;;;;;;;5.40;2.22;;;19.50;99.90;;;19.00;57.58;101867.81;4943734;28;20075;-76
2021/06/02 10:53:47;;;;;;;7.78;2.28;;;20.20;99.90;;;19.49;54.80;101876.28;4955801;28;20036;-76
2021/06/02 10:56:20;;;;;;;6.35;2.38;;;20.90;99.90;;;20.13;51.49;101873.78;4950277;28;20037;-76
2021/06/02 10:58:47;;;;;;;4.70;2.38;;;21.20;99.90;;;20.68;51.21;101861.91;4980084;28;20605;-76
2021/06/02 11:01:20;;;;;;;5.00;2.45;;;21.20;99.90;;;20.35;52.77;101868.66;4996587;28;20080;-77
2021/06/02 11:04:15;;;;;;;3.63;2.30;;;20.80;99.90;;;19.34;54.19;101865.66;4974414;28;20029;-76
2021/06/02 11:06:44;;;;;;;4.43;2.47;;;20.40;99.90;;;19.80;53.68;101861.75;4997487;28;20037;-76
2021/06/02 11:09:13;;;;;;;7.53;2.75;;;20.80;99.90;;;19.73;53.94;101872.00;5006701;28;20029;-76
2021/06/02 11:11:42;;;;;;;9.35;3.10;;;20.80;99.90;;;20.31;55.30;101864.50;5031590;28;20088;-78
2021/06/02 11:14:19;;;;;;;6.57;3.40;;;20.90;99.90;;;19.62;55.65;101869.16;5000508;28;20087;-76
2021/06/02 11:17:07;;;;;;;5.57;3.10;;;20.80;99.90;;;20.01;54.74;101862.13;4996095;28;20374;-78
2021/06/02 11:19:49;;;;;;;5.45;2.88;;;21.00;99.90;;;20.01;55.62;101865.66;4986917;28;20116;-76
2021/06/02 11:22:26;;;;;;;5.72;3.08;;;20.50;99.90;;;19.23;56.50;101866.34;4996122;28;20468;-76
2021/06/02 11:24:55;;;;;;;7.18;2.95;;;20.00;99.90;;;19.02;58.64;101865.91;5010461;28;20029;-76
2021/06/02 11:27:20;;;;;;;5.85;3.28;;;19.70;99.90;;;18.96;57.78;101865.44;4988296;28;20104;-76
2021/06/02 11:32:15;;;;;;;5.47;3.13;;;20.40;99.90;;;19.73;56.68;101864.00;5009270;28;20428;-77
2021/06/02 11:34:43;;;;;;;6.50;3.50;;;20.90;99.90;;;20.06;56.50;101862.66;5000736;28;20014;-77